LFBD/BOD METAR and TAF weather

Enter ICAO airport designator
Station Type Date Time Source
LFBD METAR 2019/02/16 17:00 UTC NOAA

LFBD 161700Z AUTO 12010KT CAVOK 16/04 Q1023 NOSIG


Station Type Date Time Source
LFBD Decoded METAR 2019/02/16 17:00 UTC NOAA

Bordeaux / Merignac, France (LFBD) 44-50N 000-42W 61M
Feb 16, 2019 - 12:00 PM EST / 2019.02.16 1700 UTC
Wind: from the ESE (120 degrees) at 12 MPH (10 KT):0
Visibility: greater than 7 mile(s):0
Temperature: 60 F (16 C)
Dew Point: 39 F (4 C)
Relative Humidity: 44%
Pressure (altimeter): 30.21 in. Hg (1023 hPa)
ob: LFBD 161700Z AUTO 12010KT CAVOK 16/04 Q1023 NOSIG
cycle: 17

Station Type Date Time Source
LFBD TAF 2019/02/16 18:22 UTC NOAA

TAF LFBD 161700Z 1618/1724 12008KT CAVOK TX19/1714Z TN05/1705Z PROB30
TEMPO 1700/1706 3000 BR


Example: see airport list